Time;durP1;ratioP1;P1;durP2;ratioP2;P2;SDS_P1;SDS_P2;PMS_P1;PMS_P2;Temp;Humidity;BMP_temperature;BMP_pressure;BME280_temperature;BME280_humidity;BME280_pressure;Samples;Min_cycle;Max_cycle;Signal;HPM_P1;HPM_P2
2022/05/10 00:02:53;;;;;;;8.20;4.50;;;;;;;12.64;51.45;101740.88;5227248;56;1141057;-74
2022/05/10 00:07:59;;;;;;;8.03;4.90;;;;;;;12.49;51.51;101733.46;5227239;56;1138945;-72
2022/05/10 00:13:06;;;;;;;10.13;4.73;;;;;;;12.45;51.96;101730.62;5082056;56;1138953;-73
2022/05/10 00:18:15;;;;;;;16.57;4.53;;;;;;;12.43;51.96;101720.59;5052025;57;1141007;-74
2022/05/10 00:23:21;;;;;;;10.73;5.10;;;;;;;12.32;51.87;101725.28;5050874;58;1141137;-75
2022/05/10 00:28:27;;;;;;;8.87;4.20;;;;;;;12.18;52.06;101720.03;5089609;57;1141134;-73
2022/05/10 00:33:33;;;;;;;14.93;5.20;;;;;;;12.06;52.29;101720.84;5163711;56;1139023;-75
2022/05/10 00:38:41;;;;;;;12.57;4.80;;;;;;;12.01;52.62;101711.47;5163567;56;1141366;-73
2022/05/10 00:43:51;;;;;;;12.03;4.63;;;;;;;11.97;52.83;101698.88;5163458;56;1141052;-73
2022/05/10 00:49:09;;;;;;;16.90;6.77;;;;;;;11.97;52.96;101697.55;5163462;56;1141098;-74
2022/05/10 00:54:51;;;;;;;9.97;5.13;;;;;;;11.93;52.93;101694.71;4911557;60;1141095;-74
2022/05/10 01:00:15;;;;;;;11.40;4.80;;;;;;;11.92;52.90;101685.05;4686657;63;1139133;-75
2022/05/10 01:05:37;;;;;;;;;;;;;;;11.91;52.91;101678.08;4693523;62;1141412;-74
2022/05/10 01:11:08;;;;;;;6.10;4.23;;;;;;;11.89;52.76;101677.33;4760429;62;976461;-73
2022/05/10 01:16:18;;;;;;;8.77;4.73;;;;;;;11.87;52.68;101669.47;4789462;60;1135364;-75
2022/05/10 01:21:54;;;;;;;12.23;4.97;;;;;;;11.92;52.69;101662.52;4915996;59;1137083;-74
2022/05/10 01:27:42;;;;;;;7.13;4.27;;;;;;;11.95;52.57;101662.33;4863274;60;1139131;-73
2022/05/10 01:38:46;;;;;;;7.97;4.80;;;;;;;11.78;52.76;101657.27;5161093;57;1139126;-75
2022/05/10 01:44:26;;;;;;;8.50;4.97;;;;;;;11.65;53.08;101653.20;5161259;56;1139140;-74
2022/05/10 01:49:44;;;;;;;8.47;4.40;;;;;;;11.56;53.50;101651.15;5151817;57;1139141;-73
2022/05/10 01:55:12;;;;;;;10.07;4.50;;;;;;;11.46;53.81;101656.63;4966412;59;1139227;-73
2022/05/10 02:00:23;;;;;;;9.90;4.43;;;;;;;11.35;54.16;101643.22;5126630;57;1141188;-74
2022/05/10 02:05:57;;;;;;;11.17;4.47;;;;;;;11.26;54.37;101634.92;5154430;57;1139137;-75
2022/05/10 02:11:07;;;;;;;12.47;4.60;;;;;;;11.12;54.67;101640.23;5152216;57;1141140;-73
2022/05/10 02:16:25;;;;;;;32.17;5.60;;;;;;;10.98;55.08;101621.70;5150518;57;1139098;-74
2022/05/10 02:21:47;;;;;;;8.87;4.60;;;;;;;10.96;55.39;101617.44;5072746;58;1139057;-75
2022/05/10 02:27:06;;;;;;;9.77;4.40;;;;;;;10.87;55.57;101609.10;5158027;57;1137126;-74
2022/05/10 02:37:42;;;;;;;9.57;4.97;;;;;;;10.54;55.84;101610.67;5156243;57;1137057;-75
2022/05/10 02:42:49;;;;;;;15.27;6.13;;;;;;;10.45;56.49;101601.98;4988802;57;1134930;-74
2022/05/10 02:47:54;;;;;;;25.20;6.43;;;;;;;10.46;57.00;101600.19;4987353;58;1141176;-74
2022/05/10 02:53:01;;;;;;;31.60;6.07;;;;;;;10.36;57.17;101593.76;4987019;59;1141419;-74
2022/05/10 02:58:11;;;;;;;33.07;7.20;;;;;;;10.28;57.53;101595.98;4917262;59;1141141;-75
2022/05/10 03:03:19;;;;;;;29.83;6.00;;;;;;;10.25;57.86;101590.88;4995944;58;1141053;-74
2022/05/10 03:08:25;;;;;;;27.90;5.70;;;;;;;10.25;58.08;101596.16;5003408;58;1141087;-74
2022/05/10 03:13:30;;;;;;;24.40;5.57;;;;;;;10.25;58.12;101590.88;5052692;57;1141020;-74
2022/05/10 03:18:36;;;;;;;10.30;4.80;;;;;;;10.23;58.27;101591.81;5079705;58;1141105;-75
2022/05/10 03:23:42;;;;;;;17.90;4.53;;;;;;;10.11;58.15;101588.55;5078138;58;1141041;-76
2022/05/10 03:28:47;;;;;;;30.07;5.90;;;;;;;10.05;58.38;101588.07;5123311;56;1141515;-76
2022/05/10 03:39:17;;;;;;;24.97;7.03;;;;;;;9.96;59.12;101580.66;5160161;56;1139216;-76
2022/05/10 03:44:23;;;;;;;40.23;6.93;;;;;;;10.03;59.48;101574.09;5109311;56;1138968;-74
2022/05/10 03:49:29;;;;;;;15.43;6.13;;;;;;;10.03;59.53;101578.91;5152572;56;1141249;-76
2022/05/10 03:54:35;;;;;;;25.70;7.73;;;;;;;9.97;59.58;101573.97;5208997;55;1140949;-76
2022/05/10 03:59:43;;;;;;;31.03;8.30;;;;;;;9.96;59.87;101570.09;5211407;56;1139536;-74
2022/05/10 04:04:49;;;;;;;22.90;5.90;;;;;;;9.99;59.88;101574.73;5218038;56;1139490;-74
2022/05/10 04:09:54;;;;;;;13.37;5.47;;;;;;;10.07;59.85;101571.19;5217775;56;1138989;-75
2022/05/10 04:15:00;;;;;;;14.07;5.87;;;;;;;10.10;59.55;101565.70;5180475;56;1141026;-73
2022/05/10 04:20:08;;;;;;;21.67;5.77;;;;;;;10.16;59.39;101562.70;5211207;56;1141053;-76
2022/05/10 04:25:23;;;;;;;17.27;5.63;;;;;;;10.21;59.15;101555.39;5217782;56;1141099;-75
2022/05/10 04:30:24;;;;;;;20.60;5.83;;;;;;;10.27;58.87;101550.66;5215008;56;1141363;-76
2022/05/10 04:35:30;;;;;;;15.87;5.13;;;;;;;10.34;58.71;101552.01;5191647;56;1141103;-73
2022/05/10 04:45:59;;;;;;;13.18;4.62;;;;;;;10.44;58.53;101550.03;5151012;57;1141107;-73
2022/05/10 04:51:06;;;;;;;9.20;4.83;;;;;;;10.54;58.37;101552.48;5176207;56;1141107;-74
2022/05/10 04:56:12;;;;;;;13.83;4.70;;;;;;;10.62;58.43;101549.38;5150565;56;1138286;-75
2022/05/10 05:01:19;;;;;;;9.37;4.10;;;;;;;10.70;58.11;101551.07;5134824;56;1141342;-75
2022/05/10 05:06:26;;;;;;;11.03;4.17;;;;;;;10.80;58.14;101559.31;5125223;56;1139428;-74
2022/05/10 05:11:31;;;;;;;6.77;3.87;;;;;;;10.93;57.97;101553.16;5125883;56;1140977;-74
2022/05/10 05:16:37;;;;;;;6.67;4.60;;;;;;;11.11;57.67;101552.48;5139638;57;1139020;-73
2022/05/10 05:42:28;;;;;;;10.70;3.77;;;;;;;12.26;56.67;101534.69;5030128;57;1134849;-74
2022/05/10 05:47:38;;;;;;;10.43;3.83;;;;;;;12.54;56.25;101525.67;4949935;59;1141117;-72
2022/05/10 05:52:46;;;;;;;6.37;3.90;;;;;;;12.76;55.25;101528.16;5097797;57;1141073;-74
2022/05/10 05:57:52;;;;;;;13.17;4.83;;;;;;;12.96;55.56;101523.14;5058212;57;1138982;-75
2022/05/10 06:03:00;;;;;;;12.57;4.60;;;;;;;13.18;54.72;101528.25;5128144;56;1141395;-73
2022/05/10 06:08:09;;;;;;;11.80;4.07;;;;;;;13.34;54.05;101526.17;5125944;56;1141077;-73
2022/05/10 06:13:21;;;;;;;5.37;3.90;;;;;;;13.44;53.34;101529.02;5082791;57;1141126;-73
2022/05/10 06:18:29;;;;;;;8.33;3.70;;;;;;;13.61;54.07;101520.14;4963298;59;1139064;-73
2022/05/10 06:23:40;;;;;;;11.33;4.03;;;;;;;13.84;53.82;101514.93;4952591;59;1139046;-73
2022/05/10 06:28:47;;;;;;;7.47;3.43;;;;;;;14.04;53.47;101512.47;5100002;58;1141150;-74
2022/05/10 06:34:02;;;;;;;10.00;3.70;;;;;;;14.30;54.44;101510.45;5109908;57;1139279;-74
2022/05/10 06:39:13;;;;;;;7.47;3.70;;;;;;;14.63;53.07;101512.81;5130932;56;1141469;-74
2022/05/10 06:44:26;;;;;;;6.63;4.00;;;;;;;14.78;52.99;101499.14;5205906;56;1139055;-73
2022/05/10 06:49:42;;;;;;;7.07;3.67;;;;;;;15.00;52.62;101500.91;5228203;55;1138644;-73
2022/05/10 06:54:51;;;;;;;14.27;4.17;;;;;;;15.30;53.35;101503.39;5264742;55;1137831;-73
2022/05/10 07:00:01;;;;;;;12.87;3.07;;;;;;;15.54;52.34;101493.88;5190988;56;1139163;-73
2022/05/10 07:05:12;;;;;;;13.23;3.30;;;;;;;15.83;51.77;101493.16;5251326;56;1139076;-74
2022/05/10 07:10:25;;;;;;;4.60;2.73;;;;;;;16.04;51.12;101481.14;5250709;56;1138987;-74
2022/05/10 07:15:35;;;;;;;;;;;;;;;16.35;50.39;101478.02;5151806;57;1137142;-74
2022/05/10 07:20:48;;;;;;;4.17;2.40;;;;;;;16.59;49.47;101470.20;5150340;57;974361;-73
2022/05/10 07:26:01;;;;;;;10.93;2.85;;;;;;;16.83;49.22;101468.05;5023032;57;1134226;-73
2022/05/10 07:31:16;;;;;;;10.60;2.33;;;;;;;17.12;48.51;101460.95;5034530;58;1139068;-74
2022/05/10 07:36:25;;;;;;;6.87;3.10;;;;;;;17.36;46.49;101454.37;5017249;58;1139139;-73
2022/05/10 07:41:36;;;;;;;5.97;2.60;;;;;;;17.49;46.38;101454.94;5133023;57;1136922;-74
2022/05/10 07:46:57;;;;;;;4.50;2.70;;;;;;;17.68;47.21;101452.29;5140972;57;1138403;-73
2022/05/10 07:52:07;;;;;;;9.33;2.40;;;;;;;17.93;46.62;101434.28;5145796;55;1138987;-73
2022/05/10 07:57:22;;;;;;;39.60;3.87;;;;;;;18.09;44.66;101425.65;5244973;56;1138727;-73
2022/05/10 08:02:29;;;;;;;8.17;2.87;;;;;;;18.13;44.96;101428.89;5243996;56;1140992;-74
2022/05/10 08:07:47;;;;;;;8.20;3.43;;;;;;;18.31;45.37;101429.81;5140999;56;1139072;-73
2022/05/10 08:12:55;;;;;;;5.53;3.20;;;;;;;18.43;44.20;101418.41;5030736;57;1138496;-73
2022/05/10 08:18:06;;;;;;;4.80;2.30;;;;;;;18.47;43.45;101415.30;4961599;58;1139017;-73
2022/05/10 08:23:35;;;;;;;4.43;2.60;;;;;;;18.53;43.41;101408.48;4983265;59;1138605;-73
2022/05/10 08:28:51;;;;;;;5.17;2.90;;;;;;;18.73;44.26;101411.94;4955081;58;1139086;-74
2022/05/10 08:34:08;;;;;;;11.18;2.98;;;;;;;18.87;43.50;101401.55;4978792;58;1138988;-72
2022/05/10 08:39:16;;;;;;;9.03;3.13;;;;;;;19.01;43.37;101403.36;4932373;59;1141164;-74
2022/05/10 08:44:31;;;;;;;9.87;4.17;;;;;;;19.19;44.00;101394.83;4934719;59;1139046;-74
2022/05/10 08:49:53;;;;;;;4.95;2.52;;;;;;;19.32;41.98;101397.97;4962908;59;1138483;-75
2022/05/10 08:55:06;;;;;;;9.30;2.60;;;;;;;19.43;41.98;101394.19;4963646;59;1139071;-74
2022/05/10 09:00:33;;;;;;;7.07;2.83;;;;;;;19.53;42.15;101375.72;4948576;58;1139288;-74
2022/05/10 09:05:48;;;;;;;3.77;2.83;;;;;;;19.65;39.70;101375.80;4888468;58;1136986;-74
2022/05/10 09:11:07;;;;;;;6.42;2.70;;;;;;;19.75;40.18;101379.71;4921353;59;1136690;-76
2022/05/10 09:16:29;;;;;;;11.40;2.52;;;;;;;19.91;39.44;101373.61;4963393;59;1137204;-74
2022/05/10 09:21:48;;;;;;;8.70;3.05;;;;;;;19.88;39.92;101362.67;4754643;61;1139082;-75
2022/05/10 09:27:04;;;;;;;6.70;3.15;;;;;;;20.07;39.63;101362.95;4735972;62;1136684;-76
2022/05/10 09:38:09;;;;;;;5.30;3.02;;;;;;;20.26;39.13;101347.10;4802085;59;1139304;-74
2022/05/10 09:43:32;;;;;;;4.80;2.50;;;;;;;20.46;39.90;101344.53;4810072;61;1139411;-74
2022/05/10 09:48:48;;;;;;;7.72;2.95;;;;;;;20.58;38.37;101334.31;4862780;60;1139199;-74
2022/05/10 09:54:00;;;;;;;5.42;2.65;;;;;;;20.77;39.04;101323.78;4861116;60;1139169;-73
2022/05/10 09:59:34;;;;;;;2.92;2.08;;;;;;;20.95;37.57;101332.52;4887754;60;1139331;-74
2022/05/10 10:04:45;;;;;;;4.80;2.45;;;;;;;21.06;36.54;101321.45;5045712;58;1139014;-75
2022/05/10 10:10:00;;;;;;;;;;;;;;;21.17;37.20;101326.48;5150905;57;1138985;-74
2022/05/10 10:15:43;;;;;;;2.95;2.15;;;;;;;21.33;33.93;101310.38;5118040;57;976346;-74
2022/05/10 10:21:00;;;;;;;8.83;2.47;;;;;;;21.32;33.55;101310.54;5185406;56;1134908;-74
2022/05/10 10:26:32;;;;;;;4.85;1.90;;;;;;;21.32;35.25;101296.58;5164902;56;1136953;-74
2022/05/10 10:31:44;;;;;;;5.97;2.72;;;;;;;21.40;35.31;101288.48;5147962;57;1137004;-74
2022/05/10 10:37:07;;;;;;;5.87;2.30;;;;;;;21.47;35.59;101283.27;5148109;57;1136986;-74
2022/05/10 10:42:37;;;;;;;9.13;2.50;;;;;;;21.68;34.85;101274.14;5099322;56;1134860;-75
2022/05/10 10:47:52;;;;;;;11.95;2.40;;;;;;;21.84;34.32;101270.56;5119445;56;1139077;-74
2022/05/10 10:53:01;;;;;;;3.77;2.25;;;;;;;21.94;35.70;101267.64;5074953;57;1141353;-74
2022/05/10 10:58:32;;;;;;;5.40;1.87;;;;;;;22.08;33.25;101260.20;5057576;58;1139002;-74
2022/05/10 11:03:49;;;;;;;4.27;2.50;;;;;;;22.28;33.33;101257.92;5126394;56;1139014;-75
2022/05/10 11:09:23;;;;;;;4.72;2.22;;;;;;;22.22;32.97;101243.80;5140914;56;1139129;-75
2022/05/10 11:14:57;;;;;;;4.75;2.33;;;;;;;22.44;33.56;101243.00;5135825;57;1139068;-74
2022/05/10 11:20:37;;;;;;;6.75;2.83;;;;;;;22.62;32.82;101227.84;5189335;56;1139004;-74
2022/05/10 11:26:02;;;;;;;4.75;2.47;;;;;;;22.67;32.71;101218.72;5176288;56;1138997;-75
2022/05/10 11:31:32;;;;;;;4.95;2.70;;;;;;;22.83;33.35;101210.53;5141080;57;1136971;-75
2022/05/10 11:36:51;;;;;;;4.10;2.15;;;;;;;22.93;30.26;101211.61;4954379;58;1137108;-75
2022/05/10 11:42:37;;;;;;;14.07;2.75;;;;;;;22.93;32.57;101215.14;5054543;57;1137202;-76
2022/05/10 11:48:30;;;;;;;8.83;2.58;;;;;;;23.14;34.24;101201.80;5124183;57;1141104;-73
2022/05/10 11:54:06;;;;;;;7.60;2.40;;;;;;;23.32;33.88;101174.45;5132165;57;1138944;-73
2022/05/10 11:59:23;;;;;;;5.83;2.12;;;;;;;23.44;33.47;101181.56;5204840;56;1138458;-73
2022/05/10 12:04:46;;;;;;;3.95;2.05;;;;;;;23.54;31.44;101164.59;5164995;56;1138959;-75
2022/05/10 12:10:03;;;;;;;13.60;2.22;;;;;;;23.61;30.97;101159.28;5153492;56;1138451;-74
2022/05/10 12:21:24;;;;;;;3.65;2.02;;;;;;;23.65;30.82;101131.72;5127421;56;1139036;-75
2022/05/10 12:26:43;;;;;;;8.25;2.60;;;;;;;23.68;31.01;101117.81;5199288;56;1136983;-75
2022/05/10 12:32:02;;;;;;;9.28;2.72;;;;;;;23.81;30.99;101109.05;5239905;55;1136896;-74
2022/05/10 12:37:35;;;;;;;5.78;1.95;;;;;;;23.93;29.38;101108.03;5151818;56;1136296;-77
2022/05/10 12:43:31;;;;;;;3.60;2.13;;;;;;;24.10;29.53;101108.94;5141051;57;1134968;-76
2022/05/10 12:48:50;;;;;;;12.07;2.95;;;;;;;23.94;30.73;101097.55;5090044;57;1138981;-75
2022/05/10 12:54:00;;;;;;;8.68;2.90;;;;;;;23.91;30.75;101086.60;5087104;57;1141125;-74
2022/05/10 12:59:19;;;;;;;5.58;2.20;;;;;;;24.07;29.83;101085.52;5141017;57;1139105;-76
2022/05/10 13:04:30;;;;;;;6.00;2.20;;;;;;;24.22;29.04;101078.17;5140868;57;1139346;-74
2022/05/10 13:09:57;;;;;;;194.65;12.98;;;;;;;24.27;29.38;101072.22;5163015;56;1139047;-75
2022/05/10 13:15:20;;;;;;;5.03;1.90;;;;;;;24.30;30.00;101059.64;5140653;57;1145313;-75
2022/05/10 13:20:30;;;;;;;2.25;1.75;;;;;;;24.41;30.20;101048.31;5126680;56;1138937;-74
2022/05/10 13:25:40;;;;;;;3.85;1.90;;;;;;;24.43;28.77;101041.69;5038194;57;1139056;-75
2022/05/10 13:30:51;;;;;;;11.65;2.12;;;;;;;24.36;29.29;101027.78;5124439;57;1138966;-75
2022/05/10 13:36:05;;;;;;;4.22;2.42;;;;;;;24.38;28.78;101021.66;5121977;57;1141170;-75
2022/05/10 13:41:13;;;;;;;6.50;2.25;;;;;;;24.31;28.70;101006.73;5126667;57;1139555;-75
2022/05/10 13:46:29;;;;;;;2.12;1.50;;;;;;;24.50;29.67;100999.80;5127096;57;1136917;-77
2022/05/10 13:51:54;;;;;;;11.50;1.98;;;;;;;24.67;28.27;100994.39;5126941;57;1137017;-74
2022/05/10 13:57:18;;;;;;;5.33;1.85;;;;;;;24.68;27.99;100978.48;5127400;57;1139026;-74
2022/05/10 14:02:25;;;;;;;8.98;2.00;;;;;;;24.74;28.45;100974.98;5127869;57;1136985;-76
2022/05/10 14:07:37;;;;;;;4.33;1.80;;;;;;;24.70;26.65;100957.48;5127937;57;1136424;-75
2022/05/10 14:12:49;;;;;;;7.50;2.20;;;;;;;24.71;26.41;100947.50;5127441;57;1137219;-75
2022/05/10 14:18:23;;;;;;;6.90;2.37;;;;;;;24.68;27.13;100946.54;5040931;58;1136515;-73
2022/05/10 14:23:34;;;;;;;7.83;2.02;;;;;;;24.66;28.27;100945.90;5140903;57;1139001;-77
2022/05/10 14:28:44;;;;;;;6.65;1.80;;;;;;;24.66;27.28;100948.09;5039977;58;1138876;-74
2022/05/10 14:33:53;;;;;;;11.87;3.30;;;;;;;24.63;26.77;100927.36;5029466;58;1139242;-75
2022/05/10 14:38:59;;;;;;;4.95;2.27;;;;;;;24.74;27.45;100923.59;5061879;57;1141159;-76
2022/05/10 14:44:21;;;;;;;5.70;2.85;;;;;;;24.60;26.91;100916.42;5137769;57;1139467;-74
2022/05/10 14:49:50;;;;;;;7.57;2.43;;;;;;;24.45;27.02;100905.73;5227373;56;1139004;-74
2022/05/10 14:54:53;;;;;;;2.40;1.75;;;;;;;24.42;27.61;100899.92;5227526;55;1138979;-75
2022/05/10 15:00:17;;;;;;;2.50;1.80;;;;;;;24.41;26.92;100895.55;5221637;55;1139001;-76
2022/05/10 15:05:16;;;;;;;6.65;2.15;;;;;;;24.42;27.52;100887.23;5230536;55;1139016;-76
2022/05/10 15:10:22;;;;;;;10.55;2.20;;;;;;;24.44;28.45;100871.63;5191509;56;1138936;-75
2022/05/10 15:15:29;;;;;;;2.35;1.72;;;;;;;24.56;27.65;100874.61;5116294;57;1141106;-74
2022/05/10 15:20:34;;;;;;;7.40;2.02;;;;;;;24.60;27.32;100862.84;5174656;56;1139348;-75
2022/05/10 15:25:42;;;;;;;3.62;2.10;;;;;;;24.64;26.82;100869.01;5201300;56;1139130;-77
2022/05/10 15:30:48;;;;;;;4.15;2.20;;;;;;;24.65;26.58;100864.44;5176649;56;1139056;-76
2022/05/10 15:35:57;;;;;;;4.12;1.92;;;;;;;24.60;27.54;100846.62;5215146;56;1139277;-77
2022/05/10 15:41:03;;;;;;;5.33;2.25;;;;;;;24.64;26.99;100835.20;5146041;56;1138571;-74
2022/05/10 15:46:15;;;;;;;6.17;2.15;;;;;;;24.72;27.58;100821.52;5170034;56;1139039;-75
2022/05/10 15:51:21;;;;;;;7.33;3.30;;;;;;;24.78;26.98;100822.03;5176570;56;1139327;-74
2022/05/10 15:56:28;;;;;;;3.37;2.20;;;;;;;24.71;26.75;100819.00;5121966;57;1139047;-76
2022/05/10 16:01:35;;;;;;;9.63;2.52;;;;;;;24.83;27.18;100821.42;5192885;56;1138996;-74
2022/05/10 16:06:41;;;;;;;12.15;1.90;;;;;;;24.90;27.04;100815.52;5221111;56;1139010;-75
2022/05/10 16:11:48;;;;;;;6.10;2.30;;;;;;;24.85;26.80;100813.94;5158919;56;1141113;-74
2022/05/10 16:16:54;;;;;;;4.62;2.25;;;;;;;24.75;26.48;100802.14;4992819;58;1137115;-74
2022/05/10 16:22:00;;;;;;;13.88;2.67;;;;;;;24.62;26.71;100795.34;5040536;58;1136987;-73
2022/05/10 16:32:30;;;;;;;4.37;2.10;;;;;;;24.50;26.77;100787.52;5013341;58;1136991;-73
2022/05/10 16:37:36;;;;;;;5.85;2.35;;;;;;;24.39;27.16;100787.59;4948622;58;1136960;-74
2022/05/10 16:42:42;;;;;;;8.83;2.60;;;;;;;24.36;27.74;100777.18;5018652;58;1136965;-72
2022/05/10 16:47:48;;;;;;;9.40;2.33;;;;;;;24.37;28.05;100780.20;5197881;56;1136931;-73
2022/05/10 16:52:54;;;;;;;5.35;2.90;;;;;;;24.33;27.59;100778.93;5227035;56;1136940;-73
2022/05/10 16:58:00;;;;;;;9.80;3.22;;;;;;;24.19;27.98;100769.91;5159608;56;1137332;-73
2022/05/10 17:03:06;;;;;;;35.00;26.62;;;;;;;24.17;28.45;100762.52;5149697;57;1136957;-73
2022/05/10 17:08:11;;;;;;;21.40;11.38;;;;;;;24.16;28.65;100756.79;5124328;57;1141153;-72
2022/05/10 17:13:17;;;;;;;26.05;7.70;;;;;;;24.13;28.95;100744.22;4974130;59;1141157;-73
2022/05/10 17:18:22;;;;;;;26.82;17.07;;;;;;;24.07;29.13;100744.50;5103326;57;1139067;-73
2022/05/10 17:23:28;;;;;;;8.95;3.60;;;;;;;23.99;29.39;100746.52;5140637;57;1141388;-73
2022/05/10 17:34:00;;;;;;;15.27;5.93;;;;;;;23.73;29.91;100728.32;5236042;56;1141306;-73
2022/05/10 17:39:06;;;;;;;21.62;11.28;;;;;;;23.53;30.28;100728.75;5202729;56;1141111;-73
2022/05/10 17:44:13;;;;;;;34.15;16.85;;;;;;;23.32;30.44;100730.95;5065991;57;1143259;-73
2022/05/10 17:49:18;;;;;;;21.07;5.92;;;;;;;23.18;31.10;100725.97;5057321;58;1143232;-73
2022/05/10 17:54:26;;;;;;;14.03;6.95;;;;;;;23.03;31.45;100714.44;4989466;58;1141147;-73
2022/05/10 17:59:31;;;;;;;37.85;15.98;;;;;;;22.90;31.87;100711.63;5066320;58;1141110;-73
2022/05/10 18:04:39;;;;;;;35.05;7.37;;;;;;;22.73;32.16;100709.17;5065998;58;1143127;-73
2022/05/10 18:09:45;;;;;;;17.27;6.55;;;;;;;22.52;32.58;100711.86;5065406;58;1141181;-73
2022/05/10 18:14:51;;;;;;;16.60;8.88;;;;;;;22.40;32.82;100708.01;5084851;58;21174;-74
2022/05/10 18:19:57;;;;;;;17.95;6.83;;;;;;;22.26;32.75;100708.89;5014512;58;1137231;-73
2022/05/10 18:25:02;;;;;;;17.67;9.70;;;;;;;22.10;32.99;100703.22;4980848;59;1140787;-73
2022/05/10 18:30:10;;;;;;;35.13;12.78;;;;;;;21.94;33.38;100706.92;4980962;59;1140982;-73
2022/05/10 18:35:18;;;;;;;20.23;10.15;;;;;;;21.82;33.86;100710.30;5034648;58;1143248;-73
2022/05/10 18:40:24;;;;;;;34.25;18.90;;;;;;;21.65;34.16;100710.48;5105044;57;1141097;-73
2022/05/10 18:45:29;;;;;;;21.40;7.65;;;;;;;21.54;34.46;100711.47;5140596;57;1141125;-73
2022/05/10 18:50:35;;;;;;;18.10;9.10;;;;;;;21.44;34.67;100709.55;5094947;57;1139071;-74
2022/05/10 18:55:43;;;;;;;40.58;17.95;;;;;;;21.37;34.95;100710.81;5070493;58;1138750;-75
2022/05/10 19:00:49;;;;;;;36.18;14.80;;;;;;;21.27;35.69;100709.71;5070675;57;1141265;-75
2022/05/10 19:05:55;;;;;;;17.82;10.15;;;;;;;21.14;35.98;100709.48;5070116;57;1141236;-74
2022/05/10 19:11:09;;;;;;;17.85;8.43;;;;;;;21.05;36.08;100713.28;5047359;58;1141220;-73
2022/05/10 19:16:16;;;;;;;29.23;14.13;;;;;;;20.96;36.26;100713.84;5055898;58;1139207;-75
2022/05/10 19:21:21;;;;;;;25.72;11.83;;;;;;;20.85;36.80;100699.50;5032467;58;1141193;-74
2022/05/10 19:26:27;;;;;;;22.55;7.90;;;;;;;20.88;37.36;100712.58;4908506;59;1141353;-73
2022/05/10 19:31:35;;;;;;;21.60;8.70;;;;;;;20.86;37.38;100701.67;4938056;59;1139073;-73
2022/05/10 19:36:42;;;;;;;20.48;9.05;;;;;;;20.79;37.79;100694.83;4828405;60;1139102;-73
2022/05/10 19:41:48;;;;;;;18.40;7.30;;;;;;;20.67;38.02;100682.33;4862813;60;1139530;-75
2022/05/10 19:46:56;;;;;;;14.10;6.35;;;;;;;20.59;38.43;100680.23;4930626;59;1138976;-74
2022/05/10 19:52:02;;;;;;;20.20;10.70;;;;;;;20.53;38.54;100682.28;5009389;58;1138892;-74
2022/05/10 19:57:09;;;;;;;21.65;9.20;;;;;;;20.47;38.71;100678.98;5005401;58;1138998;-74
2022/05/10 20:07:38;;;;;;;;;;;;;;;20.38;38.84;100681.39;4930909;59;1141178;-73
2022/05/10 20:12:45;;;;;;;19.75;7.65;;;;;;;20.36;39.00;100675.68;4972656;59;976388;-72
2022/05/10 20:17:54;;;;;;;16.97;8.60;;;;;;;20.32;39.02;100673.48;4953600;59;1138889;-73
2022/05/10 20:23:00;;;;;;;15.13;8.00;;;;;;;20.28;39.07;100666.32;5037397;58;1141050;-74
2022/05/10 20:28:07;;;;;;;12.93;5.65;;;;;;;20.20;39.21;100661.49;5132497;57;1141090;-74
2022/05/10 20:33:13;;;;;;;12.37;6.60;;;;;;;20.14;39.45;100661.72;5119947;57;1141275;-73
2022/05/10 20:38:19;;;;;;;19.20;9.23;;;;;;;20.06;39.57;100657.72;5084585;57;1141243;-73
2022/05/10 20:43:25;;;;;;;21.20;6.80;;;;;;;19.98;39.96;100654.59;5153051;57;1141178;-73
2022/05/10 20:48:31;;;;;;;18.87;6.45;;;;;;;19.92;40.16;100663.84;5217868;56;1141131;-74
2022/05/10 20:53:37;;;;;;;12.95;6.05;;;;;;;19.88;40.32;100662.01;5226949;56;1141076;-73
2022/05/10 20:58:43;;;;;;;16.40;7.75;;;;;;;19.90;40.67;100667.20;5227076;56;1141181;-73
2022/05/10 21:03:49;;;;;;;29.92;14.40;;;;;;;19.89;40.70;100663.69;5226887;56;1141151;-74
2022/05/10 21:08:55;;;;;;;35.43;18.30;;;;;;;19.87;40.73;100650.10;5188324;56;1143282;-72
2022/05/10 21:14:01;;;;;;;31.90;14.78;;;;;;;19.80;40.74;100651.33;5140826;57;1143165;-72
2022/05/10 21:19:24;;;;;;;29.92;15.13;;;;;;;19.76;40.87;100645.13;5044674;58;1143310;-73
2022/05/10 21:24:48;;;;;;;43.83;15.55;;;;;;;19.68;40.93;100638.48;4964206;59;1143204;-73
2022/05/10 21:35:40;;;;;;;16.57;6.75;;;;;;;19.50;41.27;100636.87;5044293;58;1141113;-74
2022/05/10 21:40:48;;;;;;;11.33;5.78;;;;;;;19.41;41.41;100640.55;5044556;58;1141179;-74
2022/05/10 21:45:57;;;;;;;21.15;6.45;;;;;;;19.30;41.54;100632.88;5044632;58;1141078;-73
2022/05/10 21:51:04;;;;;;;12.18;5.72;;;;;;;19.24;41.74;100629.06;5045902;58;1138971;-73
2022/05/10 21:56:09;;;;;;;10.05;5.25;;;;;;;19.18;41.87;100621.70;5045848;58;1139085;-73
2022/05/10 22:01:15;;;;;;;12.58;4.65;;;;;;;19.13;42.16;100618.69;4985655;58;1139127;-73
2022/05/10 22:06:23;;;;;;;13.05;5.15;;;;;;;19.06;42.27;100611.02;5071338;57;1139088;-73
2022/05/10 22:11:28;;;;;;;13.88;5.65;;;;;;;19.01;42.46;100604.48;5057495;58;1139037;-73
2022/05/10 22:16:34;;;;;;;12.15;4.65;;;;;;;18.93;42.76;100608.03;5057623;58;1139094;-73
2022/05/10 22:21:40;;;;;;;19.75;4.80;;;;;;;18.89;42.99;100597.31;5057851;58;1138915;-73
2022/05/10 22:26:46;;;;;;;7.70;4.28;;;;;;;18.86;43.01;100590.44;5057888;58;1139236;-73
2022/05/10 22:31:52;;;;;;;7.97;4.47;;;;;;;18.81;43.34;100579.39;5057997;58;1136923;-73
2022/05/10 22:36:57;;;;;;;18.77;5.05;;;;;;;18.79;43.43;100583.27;5058035;58;1137063;-73
2022/05/10 22:42:03;;;;;;;14.78;4.72;;;;;;;18.77;43.48;100571.38;4966022;59;1139111;-73
2022/05/10 22:47:09;;;;;;;19.00;5.60;;;;;;;18.79;43.47;100566.66;5083335;56;1139323;-72
2022/05/10 22:52:15;;;;;;;10.15;5.20;;;;;;;18.80;43.85;100562.14;5148260;56;1139039;-73
2022/05/10 22:57:21;;;;;;;13.55;5.58;;;;;;;18.84;43.95;100551.42;5143659;56;1139026;-73
2022/05/10 23:02:26;;;;;;;15.85;5.72;;;;;;;18.88;44.23;100550.08;5143641;56;1138937;-73
2022/05/10 23:07:33;;;;;;;5.87;4.42;;;;;;;18.93;44.67;100543.70;5157220;56;1139256;-73
2022/05/10 23:12:39;;;;;;;8.30;4.78;;;;;;;18.93;45.13;100526.28;5220589;56;1137074;-73
2022/05/10 23:17:45;;;;;;;7.50;4.47;;;;;;;18.93;45.90;100532.48;5146022;56;1137010;-73
2022/05/10 23:22:51;;;;;;;9.40;3.87;;;;;;;18.93;46.26;100535.16;5144022;57;1134873;-73
2022/05/10 23:28:00;;;;;;;6.72;4.35;;;;;;;18.91;47.31;100529.14;5059857;57;1134938;-73
2022/05/10 23:33:06;;;;;;;15.10;5.53;;;;;;;18.87;47.50;100529.14;5047076;57;1138964;-74
2022/05/10 23:38:12;;;;;;;11.70;4.60;;;;;;;18.84;47.67;100533.50;5059244;58;1141309;-73
2022/05/10 23:48:42;;;;;;;16.87;5.20;;;;;;;18.77;48.85;100525.00;5152243;56;1141384;-73
2022/05/10 23:53:48;;;;;;;15.57;5.00;;;;;;;18.71;49.09;100512.27;5216176;56;1140901;-73
2022/05/10 23:58:53;;;;;;;17.32;4.80;;;;;;;18.63;49.34;100502.93;5216224;56;1141159;-72
